Latest Weather Observations for Kingscote

IDS60801

Issued at 1:01 pm CST Thursday 28 May 2015 (issued every 30 minutes, with the page automatically refreshed every 10 minutes)

About weather observations | Map of weather stations | Latest weather observations for SA | Other Formats
Station Details ID: 022841 Name: KINGSCOTE AERO Lat: -35.71 Lon: 137.52 Height: 6.23 m
Data from the previous 72 hours. | See also: Recent months at Kingscote
Date/Time
CST
Temp
°C
App
Temp
°C
Dew
Point
Rel
Hum
%
Delta-T
°C
Wind Press
QNH
hPa
Press
MSL
hPa
Rain
since 9 am
mm
Dir
 
Spd
km/h
Gust
km/h
Spd
kts
Gust
kts
28/01:00pm 16.0 13.0 12.7 81 1.8 WNW 20 33 11 18 1016.6 1016.6 2.0
28/12:41pm 14.9 11.6 12.9 88 1.1 W 22 32 12 17 1016.8 1016.8 2.0
28/12:30pm 14.5 10.9 12.9 90 0.9 WSW 24 35 13 19 1016.9 1016.9 2.0
28/12:25pm 14.5 9.9 12.4 87 1.1 W 28 35 15 19 1016.9 1016.9 2.0
28/12:00pm 16.8 11.1 11.1 69 3.1 WNW 32 43 17 23 1016.7 1016.7 1.2
28/11:30am 16.7 13.0 13.8 83 1.6 WNW 26 35 14 19 1017.0 1017.0 1.2
28/11:00am 17.5 14.2 14.0 80 2.0 NW 24 35 13 19 1017.2 1017.2 1.2
28/10:30am 17.2 13.0 13.5 79 2.1 NW 28 37 15 20 1017.3 1017.3 1.2
28/10:00am 15.9 13.5 13.7 87 1.2 NW 19 26 10 14 1017.4 1017.4 1.2
28/09:31am 14.2 11.4 12.6 90 0.9 NW 19 24 10 13 1017.5 1017.5 1.2
28/09:30am 14.2 11.4 12.6 90 0.9 NW 19 26 10 14 1017.5 1017.5 1.2
28/09:13am 13.7 11.2 12.4 92 0.7 W 17 22 9 12 1017.5 1017.5 0.6
28/09:00am 14.1 11.3 12.5 90 0.9 WNW 19 28 10 15 1017.4 1017.4 13.8
28/08:37am 14.2 12.8 13.4 95 0.4 NW 13 28 7 15 1017.3 1017.3 13.8
28/08:32am 14.1 13.1 13.3 95 0.4 WNW 11 28 6 15 1017.3 1017.3 13.8
28/08:30am 13.7 12.9 12.9 95 0.4 WNW 9 13 5 7 1017.3 1017.3 13.8
28/08:24am 13.6 12.4 12.8 95 0.4 W 11 19 6 10 1017.4 1017.4 13.8
28/08:16am 13.8 12.6 12.9 94 0.5 WNW 11 19 6 10 1017.2 1017.2 13.6
28/08:00am 13.6 12.0 12.7 94 0.5 WNW 13 19 7 10 1017.1 1017.1 12.2
28/07:36am 13.5 10.4 12.2 92 0.7 WNW 20 26 11 14 1016.9 1016.9 11.4
28/07:30am 13.5 10.5 12.4 93 0.6 W 20 26 11 14 1017.0 1017.0 10.8
28/07:10am 13.4 10.6 12.5 94 0.5 NW 19 30 10 16 1016.8 1016.8 5.4
28/07:00am 12.8 11.0 12.0 95 0.4 NNW 13 15 7 8 1016.9 1016.9 4.2
28/06:30am 11.3 11.5 10.7 96 0.3 CALM 0 0 0 0 1016.5 1016.5 4.2
28/06:00am 11.0 11.1 10.1 94 0.5 CALM 0 0 0 0 1016.4 1016.4 4.2
28/05:30am 12.1 11.2 11.2 94 0.5 NW 7 9 4 5 1016.2 1016.2 4.0
28/05:00am 12.4 11.2 11.5 94 0.5 NW 9 11 5 6 1016.2 1016.2 4.0
28/04:30am 13.0 11.6 12.1 94 0.5 WNW 11 13 6 7 1016.2 1016.2 4.0
28/04:17am 13.6 11.9 12.5 93 0.6 NW 13 20 7 11 1016.1 1016.1 4.0
28/04:00am 14.4 12.6 13.4 94 0.6 W 15 20 8 11 1016.2 1016.2 3.2
28/03:30am 14.5 12.7 13.2 92 0.7 NW 15 24 8 13 1016.1 1016.1 2.0
28/03:00am 14.7 12.1 13.2 91 0.8 NW 19 26 10 14 1016.2 1016.2 2.0
28/02:30am 14.7 12.2 13.6 93 0.6 NW 19 24 10 13 1016.5 1016.5 2.0
28/02:00am 14.8 12.7 13.5 92 0.7 NW 17 20 9 11 1016.5 1016.5 2.0
28/01:30am 14.6 12.5 13.5 93 0.6 NW 17 22 9 12 1016.9 1016.9 2.0
28/01:00am 14.4 13.0 13.4 94 0.6 NNW 13 19 7 10 1016.9 1016.9 1.8
28/12:30am 14.6 13.3 13.6 94 0.6 NNW 13 17 7 9 1016.7 1016.7 1.8
28/12:00am 14.7 12.2 13.6 93 0.6 NW 19 24 10 13 1016.9 1016.9 1.8
 
Date/Time
CST
Temp
°C
App
Temp
°C
Dew
Point
Rel
Hum
%
Delta-T
°C
Wind Press
QNH
hPa
Press
MSL
hPa
Rain
since 9 am
mm
Dir
 
Spd
km/h
Gust
km/h
Spd
kts
Gust
kts
27/11:46pm 14.9 12.9 13.9 94 0.6 NNW 17 30 9 16 1017.0 1017.0 1.8
27/11:30pm 14.7 13.4 13.7 94 0.6 NNW 13 20 7 11 1017.1 1017.1 1.8
27/11:00pm 14.8 13.6 14.0 95 0.4 NNW 13 20 7 11 1017.3 1017.3 1.8
27/10:35pm 14.7 13.1 13.9 95 0.4 NNW 15 20 8 11 1017.4 1017.4 1.8
27/10:30pm 14.8 13.2 14.0 95 0.4 NNW 15 22 8 12 1017.4 1017.4 1.8
27/10:00pm 14.3 13.7 13.5 95 0.4 N 9 11 5 6 1017.5 1017.5 1.8
27/09:30pm 14.4 13.8 13.6 95 0.4 N 9 13 5 7 1017.6 1017.6 1.8
27/09:00pm 14.7 14.2 13.7 94 0.6 N 9 11 5 6 1017.6 1017.6 1.8
27/08:30pm 15.1 15.1 14.3 95 0.5 NNW 7 13 4 7 1017.8 1017.8 1.8
27/08:00pm 15.0 15.0 14.2 95 0.5 NW 7 9 4 5 1017.9 1017.9 1.4
27/07:30pm 15.1 14.8 14.3 95 0.5 NW 9 13 5 7 1017.7 1017.7 1.4
27/07:00pm 15.2 14.9 14.4 95 0.5 NNW 9 11 5 6 1017.7 1017.7 1.4
27/06:55pm 15.2 14.9 14.4 95 0.5 NW 9 11 5 6 1017.6 1017.6 1.4
27/06:30pm 15.3 15.3 14.3 94 0.6 NNW 7 13 4 7 1017.7 1017.7 1.2
27/06:21pm 15.3 15.0 14.3 94 0.6 NNW 9 11 5 6 1017.7 1017.7 0.8
27/06:00pm 15.3 13.8 14.3 94 0.6 NNW 15 20 8 11 1017.6 1017.6 0.8
27/05:30pm 15.4 14.0 14.4 94 0.6 NNW 15 20 8 11 1017.4 1017.4 0.8
27/05:00pm 15.5 14.5 14.5 94 0.6 NNW 13 17 7 9 1017.6 1017.6 0.8
27/04:30pm 15.7 14.7 14.6 93 0.6 NNW 13 15 7 8 1017.5 1017.5 0.8
27/04:02pm 15.9 14.2 14.6 92 0.7 NW 17 22 9 12 1017.5 1017.5 0.6
27/04:00pm 16.0 14.3 14.7 92 0.7 NW 17 24 9 13 1017.5 1017.5 0.4
27/03:30pm 16.4 14.7 14.8 90 0.9 WNW 17 20 9 11 1017.4 1017.4 0.2
27/03:29pm 16.5 14.9 14.9 90 0.9 WNW 17 20 9 11 1017.4 1017.4 0.2
27/03:00pm 16.9 15.2 14.7 87 1.3 NW 17 22 9 12 1017.3 1017.3 0.0
27/02:30pm 17.0 14.5 14.1 83 1.6 NW 20 28 11 15 1017.2 1017.2 0.0
27/02:00pm 17.1 13.7 13.6 80 2.0 NW 24 32 13 17 1017.4 1017.4 0.0
27/01:30pm 17.7 14.9 14.4 81 1.9 NW 22 30 12 16 1017.6 1017.6 0.0
27/01:00pm 17.6 14.0 14.3 81 1.9 WNW 26 37 14 20 1017.9 1017.9 0.0
27/12:53pm 17.6 13.2 14.1 80 2.0 WNW 30 39 16 21 1017.9 1017.9 0.0
27/12:30pm 18.8 16.0 15.3 80 2.1 NW 24 37 13 20 1018.3 1018.3 0.0
27/12:00pm 18.0 15.0 14.7 81 1.9 NW 24 35 13 19 1018.6 1018.6 0.0
27/11:44am 17.7 14.9 14.4 81 1.9 NNW 22 32 12 17 1018.8 1018.8 0.0
27/11:32am 17.5 15.1 14.4 82 1.8 NNW 20 28 11 15 1018.9 1018.9 0.0
27/11:30am 17.8 15.8 14.9 83 1.7 NNW 19 28 10 15 1019.0 1019.0 0.0
27/11:00am 17.2 14.4 14.3 83 1.7 NNW 22 30 12 16 1019.5 1019.5 0.0
27/10:43am 17.3 14.9 14.4 83 1.7 NNW 20 26 11 14 1019.5 1019.5 0.0
27/10:30am 16.8 14.4 14.3 85 1.4 NW 20 28 11 15 1019.6 1019.6 0.0
27/10:07am 17.1 14.4 14.6 85 1.4 NW 22 28 12 15 1019.5 1019.5 0.0
27/10:00am 16.8 14.0 14.3 85 1.4 NW 22 28 12 15 1019.5 1019.5 0.0
27/09:41am 16.3 13.9 14.3 88 1.1 NW 20 28 11 15 1019.4 1019.4 0.0
27/09:30am 16.4 13.9 14.2 87 1.2 NNW 20 28 11 15 1019.2 1019.2 0.0
27/09:00am 16.1 13.6 14.1 88 1.1 NW 20 28 11 15 1019.1 1019.1 0.0
27/08:30am 15.4 12.7 13.6 89 1.0 NW 20 26 11 14 1019.0 1019.0 0.0
27/08:00am 14.5 11.9 13.2 92 0.7 NW 19 26 10 14 1018.9 1018.9 0.0
27/07:30am 13.8 11.5 12.9 94 0.5 NW 17 24 9 13 1018.8 1018.8 0.0
27/07:00am 13.7 11.3 12.8 94 0.5 NW 17 22 9 12 1018.5 1018.5 0.0
27/06:30am 13.6 11.6 12.8 95 0.4 NW 15 20 8 11 1018.1 1018.1 0.0
27/06:00am 13.6 11.6 12.8 95 0.4 NW 15 19 8 10 1018.1 1018.1 0.0
27/05:30am 13.5 11.8 12.6 94 0.5 NW 13 17 7 9 1018.0 1018.0 0.0
27/05:00am 13.8 11.0 12.5 92 0.7 NW 19 22 10 12 1018.1 1018.1 0.0
27/04:30am 13.9 11.8 12.5 91 0.8 NNW 15 20 8 11 1018.2 1018.2 0.0
27/04:00am 13.8 11.6 12.2 90 0.9 NNW 15 20 8 11 1018.2 1018.2 0.0
27/03:30am 13.9 12.2 12.3 90 0.9 NNW 13 19 7 10 1018.4 1018.4 0.0
27/03:00am 14.3 12.2 12.3 88 1.1 NNW 15 20 8 11 1018.8 1018.8 0.0
27/02:30am 14.2 11.7 12.2 88 1.1 NW 17 24 9 13 1019.0 1019.0 0.0
27/02:00am 13.9 11.3 11.9 88 1.1 NW 17 20 9 11 1019.1 1019.1 0.0
27/01:30am 14.3 10.4 12.0 86 1.2 NNW 24 32 13 17 1019.0 1019.0 0.0
27/01:00am 13.9 11.4 12.3 90 0.9 NNW 17 28 9 15 1019.1 1019.1 0.0
27/12:30am 13.3 11.7 11.7 90 0.9 NNW 11 17 6 9 1019.5 1019.5 0.0
27/12:00am 13.5 11.9 11.7 89 1.0 NNW 11 15 6 8 1019.7 1019.7 0.0
 
Date/Time
CST
Temp
°C
App
Temp
°C
Dew
Point
Rel
Hum
%
Delta-T
°C
Wind Press
QNH
hPa
Press
MSL
hPa
Rain
since 9 am
mm
Dir
 
Spd
km/h
Gust
km/h
Spd
kts
Gust
kts
26/11:30pm 13.5 12.3 11.7 89 1.0 NNW 9 11 5 6 1019.8 1019.8 0.0
26/11:00pm 13.7 12.2 11.9 89 1.0 NNW 11 15 6 8 1019.8 1019.8 0.0
26/10:30pm 13.7 12.1 11.6 87 1.1 NNW 11 13 6 7 1019.8 1019.8 0.0
26/10:00pm 14.4 12.5 11.7 84 1.4 NNW 13 19 7 10 1019.9 1019.9 0.0
26/09:30pm 14.8 13.3 11.8 82 1.6 NNW 11 15 6 8 1020.2 1020.2 0.0
26/09:00pm 12.8 11.7 12.0 95 0.4 NW 9 11 5 6 1020.6 1020.6 0.0
26/08:30pm 11.6 11.9 10.8 95 0.4 CALM 0 0 0 0 1020.8 1020.8 0.0
26/08:00pm 11.7 12.0 10.9 95 0.4 CALM 0 0 0 0 1020.8 1020.8 0.0
26/07:30pm 11.6 11.8 10.7 94 0.5 CALM 0 0 0 0 1020.7 1020.7 0.0
26/07:00pm 11.5 11.6 10.2 92 0.7 CALM 0 0 0 0 1020.7 1020.7 0.0
26/06:30pm 13.7 13.1 12.3 91 0.8 N 7 9 4 5 1020.5 1020.5 0.0
26/06:00pm 14.1 13.0 12.1 88 1.1 NNE 9 9 5 5 1020.6 1020.6 0.0
26/05:30pm 14.7 13.6 10.7 77 2.1 N 7 11 4 6 1020.8 1020.8 0.0
26/05:00pm 15.2 13.6 10.2 72 2.6 NNE 9 11 5 6 1020.5 1020.5 0.0
26/04:30pm 16.7 14.7 11.6 72 2.8 NE 13 15 7 8 1020.5 1020.5 0.0
26/04:00pm 17.3 15.6 9.7 61 4.0 NNE 9 11 5 6 1020.6 1020.6 0.0
26/03:30pm 17.9 16.4 8.5 54 4.8 N 6 11 3 6 1020.6 1020.6 0.0
26/03:00pm 17.6 16.3 10.0 61 4.0 N 7 9 4 5 1020.7 1020.7 0.0
26/02:30pm 17.4 15.0 10.1 62 3.9 N 13 17 7 9 1021.1 1021.1 0.0
26/02:00pm 17.6 14.8 8.7 56 4.6 N 13 17 7 9 1021.1 1021.1 0.0
26/01:30pm 18.4 15.9 11.0 62 4.0 NNE 15 19 8 10 1021.7 1021.7 0.0
26/01:00pm 18.2 15.8 8.7 54 4.9 NNE 11 15 6 8 1022.1 1022.1 0.0
26/12:30pm 17.7 15.1 9.3 58 4.4 NNE 13 17 7 9 1022.5 1022.5 0.0
26/12:00pm 17.6 16.6 10.9 65 3.6 N 7 11 4 6 1022.9 1022.9 0.0
26/11:30am 17.8 16.7 11.8 68 3.3 N 9 13 5 7 1023.5 1023.5 0.0
26/11:00am 16.6 14.0 10.7 68 3.1 N 15 19 8 10 1024.2 1024.2 0.0
26/10:30am 16.6 14.9 12.4 76 2.3 NNE 13 15 7 8 1024.3 1024.3 0.0
26/10:00am 15.1 16.2 13.5 90 0.9 CALM 0 0 0 0 1024.4 1024.4 0.0
26/09:30am 13.4 14.2 12.5 94 0.5 CALM 0 0 0 0 1024.7 1024.7 0.0
26/09:00am 12.0 12.4 11.2 95 0.4 CALM 0 0 0 0 1024.8 1024.8 0.0
26/08:30am 11.2 11.4 10.6 96 0.3 CALM 0 0 0 0 1024.7 1024.7 0.0
26/08:00am 9.8 9.6 9.2 96 0.3 CALM 0 0 0 0 1024.9 1024.9 0.0
26/07:30am 9.6 9.3 8.8 95 0.4 CALM 0 0 0 0 1024.8 1024.8 0.0
26/07:00am 10.1 10.0 9.3 95 0.4 CALM 0 0 0 0 1024.5 1024.5 0.0
26/06:30am 10.4 10.4 9.8 96 0.3 CALM 0 0 0 0 1024.6 1024.6 0.0
26/06:00am 10.4 10.3 9.6 95 0.4 CALM 0 0 0 0 1024.6 1024.6 0.0
26/05:30am 10.4 10.3 9.6 95 0.4 CALM 0 0 0 0 1024.5 1024.5 0.0
26/05:00am 10.4 10.4 9.8 96 0.3 CALM 0 0 0 0 1024.5 1024.5 0.0
26/04:30am 10.4 10.3 9.6 95 0.4 CALM 0 0 0 0 1024.6 1024.6 0.0
26/04:00am 10.4 10.3 9.6 95 0.4 CALM 0 0 0 0 1024.8 1024.8 0.0
26/03:30am 10.2 10.1 9.4 95 0.4 CALM 0 0 0 0 1025.1 1025.1 0.0
26/03:00am 10.2 10.1 9.4 95 0.4 CALM 0 0 0 0 1025.2 1025.2 0.0
26/02:30am 10.0 9.8 9.2 95 0.4 CALM 0 0 0 0 1025.5 1025.5 0.0
26/02:00am 10.1 10.0 9.3 95 0.4 CALM 0 0 0 0 1025.6 1025.6 0.0
26/01:30am 10.0 9.8 9.2 95 0.4 CALM 0 0 0 0 1025.7 1025.7 0.0
26/01:00am 10.1 10.0 9.3 95 0.4 CALM 0 0 0 0 1025.8 1025.8 0.0
26/12:30am 10.0 9.8 9.2 95 0.4 CALM 0 0 0 0 1026.0 1026.0 0.0
26/12:00am 10.7 10.7 9.9 95 0.4 CALM 0 0 0 0 1026.2 1026.2 0.0
 
Date/Time
CST
Temp
°C
App
Temp
°C
Dew
Point
Rel
Hum
%
Delta-T
°C
Wind Press
QNH
hPa
Press
MSL
hPa
Rain
since 9 am
mm
Dir
 
Spd
km/h
Gust
km/h
Spd
kts
Gust
kts
25/11:30pm 10.6 10.2 9.8 95 0.4 WSW 2 6 1 3 1026.5 1026.5 0.0
25/11:00pm 10.7 9.6 10.1 96 0.3 WSW 6 7 3 4 1026.7 1026.7 0.0
25/10:30pm 10.5 9.4 9.9 96 0.3 WSW 6 7 3 4 1027.1 1027.1 0.0
25/10:00pm 10.3 9.1 9.7 96 0.3 WSW 6 9 3 5 1027.1 1027.1 0.0
25/09:30pm 10.1 8.9 9.5 96 0.3 SSW 6 7 3 4 1027.1 1027.1 0.0
25/09:00pm 10.4 9.3 9.8 96 0.3 SSW 6 7 3 4 1027.2 1027.2 0.0
25/08:30pm 10.0 8.1 9.2 95 0.4 W 9 11 5 6 1027.5 1027.5 0.0
25/08:00pm 10.5 10.4 9.6 94 0.5 CALM 0 0 0 0 1027.2 1027.2 0.0
25/07:30pm 10.1 9.9 9.0 93 0.5 CALM 0 0 0 0 1027.0 1027.0 0.0
25/07:00pm 10.6 10.4 9.2 91 0.7 CALM 0 0 0 0 1027.0 1027.0 0.0
25/06:30pm 11.7 11.8 10.3 91 0.7 CALM 0 0 0 0 1027.0 1027.0 0.0
25/06:00pm 12.5 11.6 10.7 89 0.9 SE 6 7 3 4 1026.7 1026.7 0.0
25/05:30pm 13.5 12.1 10.9 84 1.4 NE 9 11 5 6 1026.8 1026.8 0.0
25/05:00pm 14.2 13.2 11.0 81 1.7 ENE 7 11 4 6 1026.6 1026.6 0.0
25/04:30pm 15.6 14.0 11.4 76 2.2 ENE 11 13 6 7 1026.3 1026.3 0.0
25/04:00pm 16.0 13.9 11.2 73 2.6 ENE 13 15 7 8 1026.3 1026.3 0.0
25/03:30pm 16.9 14.6 11.6 71 2.9 ENE 15 17 8 9 1026.2 1026.2 0.0
25/03:00pm 17.1 14.4 11.6 70 3.0 E 17 20 9 11 1026.1 1026.1 0.0
25/02:30pm 18.2 16.2 11.5 65 3.6 ENE 13 26 7 14 1025.9 1025.9 0.0
25/02:00pm 18.1 16.0 9.7 58 4.4 ENE 11 15 6 8 1025.9 1025.9 0.0
25/01:30pm 18.3 16.9 10.9 62 4.0 N 9 13 5 7 1026.2 1026.2 0.0

Other Formats:

Comma delimited format used in spreadsheet applications
http://www.bom.gov.au/fwo/IDS60801/IDS60801.95807.axf

JavaScript Object Notation format (JSON) in row-major order
http://www.bom.gov.au/fwo/IDS60801/IDS60801.95807.json